sensor_id;sensor_type;location;lat;lon;timestamp;P1;durP1;ratioP1;P2;durP2;ratioP2
46158;SDS011;31888;44.512;26.104;2022-12-24T00:00:49;224.57;;;88.32;;
46158;SDS011;31888;44.512;26.104;2022-12-24T00:03:18;215.77;;;89.68;;
46158;SDS011;31888;44.512;26.104;2022-12-24T00:05:43;223.02;;;91.22;;
46158;SDS011;31888;44.512;26.104;2022-12-24T00:08:07;231.98;;;90.38;;
46158;SDS011;31888;44.512;26.104;2022-12-24T00:10:32;217.20;;;90.55;;
46158;SDS011;31888;44.512;26.104;2022-12-24T00:12:56;221.68;;;89.78;;
46158;SDS011;31888;44.512;26.104;2022-12-24T00:15:21;219.38;;;88.70;;
46158;SDS011;31888;44.512;26.104;2022-12-24T00:17:46;219.88;;;91.22;;
46158;SDS011;31888;44.512;26.104;2022-12-24T00:20:11;211.68;;;86.82;;
46158;SDS011;31888;44.512;26.104;2022-12-24T00:22:36;215.60;;;94.47;;
46158;SDS011;31888;44.512;26.104;2022-12-24T00:25:00;220.73;;;88.35;;
46158;SDS011;31888;44.512;26.104;2022-12-24T00:27:24;213.35;;;84.80;;
46158;SDS011;31888;44.512;26.104;2022-12-24T00:29:49;215.32;;;85.03;;
46158;SDS011;31888;44.512;26.104;2022-12-24T00:32:13;202.48;;;85.45;;
46158;SDS011;31888;44.512;26.104;2022-12-24T00:34:39;203.52;;;84.88;;
46158;SDS011;31888;44.512;26.104;2022-12-24T00:37:04;192.98;;;86.45;;
46158;SDS011;31888;44.512;26.104;2022-12-24T00:39:29;198.57;;;86.50;;
46158;SDS011;31888;44.512;26.104;2022-12-24T00:41:53;207.65;;;84.68;;
46158;SDS011;31888;44.512;26.104;2022-12-24T00:44:18;201.38;;;84.90;;
46158;SDS011;31888;44.512;26.104;2022-12-24T00:46:42;205.77;;;87.35;;
46158;SDS011;31888;44.512;26.104;2022-12-24T00:49:07;214.88;;;89.38;;
46158;SDS011;31888;44.512;26.104;2022-12-24T00:51:35;210.43;;;87.03;;
46158;SDS011;31888;44.512;26.104;2022-12-24T00:54:00;208.07;;;87.55;;
46158;SDS011;31888;44.512;26.104;2022-12-24T00:56:25;218.23;;;85.90;;
46158;SDS011;31888;44.512;26.104;2022-12-24T00:58:50;213.00;;;85.38;;
46158;SDS011;31888;44.512;26.104;2022-12-24T01:01:15;203.10;;;83.13;;
46158;SDS011;31888;44.512;26.104;2022-12-24T01:03:40;214.02;;;83.60;;
46158;SDS011;31888;44.512;26.104;2022-12-24T01:06:06;204.50;;;86.85;;
46158;SDS011;31888;44.512;26.104;2022-12-24T01:08:33;216.50;;;87.97;;
46158;SDS011;31888;44.512;26.104;2022-12-24T01:10:58;216.70;;;83.70;;
46158;SDS011;31888;44.512;26.104;2022-12-24T01:13:23;219.07;;;86.93;;
46158;SDS011;31888;44.512;26.104;2022-12-24T01:15:48;223.68;;;88.55;;
46158;SDS011;31888;44.512;26.104;2022-12-24T01:18:13;219.85;;;87.53;;
46158;SDS011;31888;44.512;26.104;2022-12-24T01:20:38;207.05;;;87.65;;
46158;SDS011;31888;44.512;26.104;2022-12-24T01:23:02;208.07;;;86.10;;
46158;SDS011;31888;44.512;26.104;2022-12-24T01:25:28;207.02;;;87.25;;
46158;SDS011;31888;44.512;26.104;2022-12-24T01:27:52;210.35;;;88.57;;
46158;SDS011;31888;44.512;26.104;2022-12-24T01:30:17;213.55;;;88.47;;
46158;SDS011;31888;44.512;26.104;2022-12-24T01:32:41;219.65;;;84.88;;
46158;SDS011;31888;44.512;26.104;2022-12-24T01:35:06;220.52;;;89.15;;
46158;SDS011;31888;44.512;26.104;2022-12-24T01:37:31;225.95;;;89.25;;
46158;SDS011;31888;44.512;26.104;2022-12-24T01:39:56;212.63;;;88.80;;
46158;SDS011;31888;44.512;26.104;2022-12-24T01:42:35;218.95;;;85.35;;
46158;SDS011;31888;44.512;26.104;2022-12-24T01:48:19;211.90;;;86.30;;
46158;SDS011;31888;44.512;26.104;2022-12-24T01:50:58;218.13;;;84.60;;
46158;SDS011;31888;44.512;26.104;2022-12-24T01:53:25;217.57;;;88.55;;
46158;SDS011;31888;44.512;26.104;2022-12-24T01:55:50;218.48;;;86.07;;
46158;SDS011;31888;44.512;26.104;2022-12-24T01:58:17;213.40;;;86.50;;
46158;SDS011;31888;44.512;26.104;2022-12-24T02:00:44;231.60;;;88.95;;
46158;SDS011;31888;44.512;26.104;2022-12-24T02:03:08;216.52;;;87.10;;
46158;SDS011;31888;44.512;26.104;2022-12-24T02:05:33;228.50;;;92.65;;
46158;SDS011;31888;44.512;26.104;2022-12-24T02:08:02;220.88;;;90.28;;
46158;SDS011;31888;44.512;26.104;2022-12-24T02:10:28;217.18;;;88.35;;
46158;SDS011;31888;44.512;26.104;2022-12-24T02:12:53;216.00;;;88.75;;
46158;SDS011;31888;44.512;26.104;2022-12-24T02:15:45;224.63;;;89.03;;
46158;SDS011;31888;44.512;26.104;2022-12-24T02:18:20;227.43;;;91.63;;
46158;SDS011;31888;44.512;26.104;2022-12-24T02:24:02;210.80;;;84.80;;
46158;SDS011;31888;44.512;26.104;2022-12-24T02:27:04;215.45;;;83.78;;
46158;SDS011;31888;44.512;26.104;2022-12-24T02:29:54;217.80;;;88.20;;
46158;SDS011;31888;44.512;26.104;2022-12-24T02:35:34;210.35;;;87.82;;
46158;SDS011;31888;44.512;26.104;2022-12-24T02:38:04;210.68;;;86.22;;
46158;SDS011;31888;44.512;26.104;2022-12-24T02:40:35;219.60;;;86.82;;
46158;SDS011;31888;44.512;26.104;2022-12-24T02:43:04;223.88;;;85.63;;
46158;SDS011;31888;44.512;26.104;2022-12-24T02:45:34;215.07;;;84.80;;
46158;SDS011;31888;44.512;26.104;2022-12-24T02:48:02;206.00;;;85.70;;
46158;SDS011;31888;44.512;26.104;2022-12-24T02:50:27;224.77;;;89.00;;
46158;SDS011;31888;44.512;26.104;2022-12-24T02:52:52;220.35;;;88.38;;
46158;SDS011;31888;44.512;26.104;2022-12-24T02:55:18;230.90;;;87.90;;
46158;SDS011;31888;44.512;26.104;2022-12-24T03:00:31;214.98;;;84.30;;
46158;SDS011;31888;44.512;26.104;2022-12-24T03:03:12;213.43;;;87.28;;
46158;SDS011;31888;44.512;26.104;2022-12-24T03:05:50;216.07;;;87.57;;
46158;SDS011;31888;44.512;26.104;2022-12-24T03:08:20;226.53;;;88.70;;
46158;SDS011;31888;44.512;26.104;2022-12-24T03:10:55;223.77;;;91.38;;
46158;SDS011;31888;44.512;26.104;2022-12-24T03:13:23;227.82;;;89.85;;
46158;SDS011;31888;44.512;26.104;2022-12-24T03:15:52;225.77;;;88.80;;
46158;SDS011;31888;44.512;26.104;2022-12-24T03:18:19;221.25;;;92.07;;
46158;SDS011;31888;44.512;26.104;2022-12-24T03:20:49;221.15;;;88.78;;
46158;SDS011;31888;44.512;26.104;2022-12-24T03:23:19;226.07;;;89.85;;
46158;SDS011;31888;44.512;26.104;2022-12-24T03:25:43;228.73;;;90.20;;
46158;SDS011;31888;44.512;26.104;2022-12-24T03:28:09;222.75;;;89.70;;
46158;SDS011;31888;44.512;26.104;2022-12-24T03:30:37;229.82;;;87.18;;
46158;SDS011;31888;44.512;26.104;2022-12-24T03:33:04;215.52;;;87.30;;
46158;SDS011;31888;44.512;26.104;2022-12-24T03:35:28;227.63;;;89.25;;
46158;SDS011;31888;44.512;26.104;2022-12-24T03:37:53;220.77;;;87.32;;
46158;SDS011;31888;44.512;26.104;2022-12-24T03:40:18;222.07;;;92.78;;
46158;SDS011;31888;44.512;26.104;2022-12-24T03:42:42;235.57;;;92.38;;
46158;SDS011;31888;44.512;26.104;2022-12-24T03:45:07;228.20;;;85.82;;
46158;SDS011;31888;44.512;26.104;2022-12-24T03:47:32;227.80;;;94.07;;
46158;SDS011;31888;44.512;26.104;2022-12-24T03:49:58;241.35;;;93.47;;
46158;SDS011;31888;44.512;26.104;2022-12-24T03:52:24;232.48;;;91.10;;
46158;SDS011;31888;44.512;26.104;2022-12-24T03:54:48;221.68;;;88.22;;
46158;SDS011;31888;44.512;26.104;2022-12-24T03:57:13;219.07;;;88.18;;
46158;SDS011;31888;44.512;26.104;2022-12-24T03:59:37;236.70;;;91.78;;
46158;SDS011;31888;44.512;26.104;2022-12-24T04:02:01;232.00;;;90.78;;
46158;SDS011;31888;44.512;26.104;2022-12-24T04:04:26;235.13;;;91.85;;
46158;SDS011;31888;44.512;26.104;2022-12-24T04:06:52;231.30;;;91.07;;
46158;SDS011;31888;44.512;26.104;2022-12-24T04:09:16;222.82;;;91.03;;
46158;SDS011;31888;44.512;26.104;2022-12-24T04:11:41;220.27;;;90.95;;
46158;SDS011;31888;44.512;26.104;2022-12-24T04:14:05;218.27;;;88.25;;
46158;SDS011;31888;44.512;26.104;2022-12-24T04:16:29;227.15;;;94.25;;
46158;SDS011;31888;44.512;26.104;2022-12-24T04:18:54;229.20;;;91.90;;
46158;SDS011;31888;44.512;26.104;2022-12-24T04:21:18;223.95;;;90.15;;
46158;SDS011;31888;44.512;26.104;2022-12-24T04:23:44;219.75;;;89.65;;
46158;SDS011;31888;44.512;26.104;2022-12-24T04:26:10;211.40;;;85.90;;
46158;SDS011;31888;44.512;26.104;2022-12-24T04:28:35;213.68;;;87.57;;
46158;SDS011;31888;44.512;26.104;2022-12-24T04:31:01;215.27;;;89.22;;
46158;SDS011;31888;44.512;26.104;2022-12-24T04:33:27;210.25;;;87.68;;
46158;SDS011;31888;44.512;26.104;2022-12-24T04:35:52;215.50;;;88.30;;
46158;SDS011;31888;44.512;26.104;2022-12-24T04:38:16;215.85;;;90.60;;
46158;SDS011;31888;44.512;26.104;2022-12-24T04:40:42;213.88;;;88.97;;
46158;SDS011;31888;44.512;26.104;2022-12-24T04:43:06;217.95;;;88.35;;
46158;SDS011;31888;44.512;26.104;2022-12-24T04:45:31;219.43;;;87.50;;
46158;SDS011;31888;44.512;26.104;2022-12-24T04:47:55;224.80;;;92.22;;
46158;SDS011;31888;44.512;26.104;2022-12-24T04:50:20;227.57;;;92.75;;
46158;SDS011;31888;44.512;26.104;2022-12-24T04:52:44;220.73;;;91.35;;
46158;SDS011;31888;44.512;26.104;2022-12-24T04:55:08;231.48;;;91.78;;
46158;SDS011;31888;44.512;26.104;2022-12-24T04:57:35;214.95;;;90.85;;
46158;SDS011;31888;44.512;26.104;2022-12-24T04:59:59;221.43;;;91.13;;
46158;SDS011;31888;44.512;26.104;2022-12-24T05:02:24;225.38;;;92.78;;
46158;SDS011;31888;44.512;26.104;2022-12-24T05:04:49;217.02;;;88.80;;
46158;SDS011;31888;44.512;26.104;2022-12-24T05:07:13;215.68;;;88.65;;
46158;SDS011;31888;44.512;26.104;2022-12-24T05:09:38;218.55;;;89.10;;
46158;SDS011;31888;44.512;26.104;2022-12-24T05:12:03;215.55;;;86.53;;
46158;SDS011;31888;44.512;26.104;2022-12-24T05:14:29;210.10;;;86.35;;
46158;SDS011;31888;44.512;26.104;2022-12-24T05:16:54;209.77;;;87.47;;
46158;SDS011;31888;44.512;26.104;2022-12-24T05:19:18;211.10;;;88.88;;
46158;SDS011;31888;44.512;26.104;2022-12-24T05:21:43;199.40;;;85.15;;
46158;SDS011;31888;44.512;26.104;2022-12-24T05:24:27;205.93;;;83.85;;
46158;SDS011;31888;44.512;26.104;2022-12-24T05:27:09;199.40;;;85.57;;
46158;SDS011;31888;44.512;26.104;2022-12-24T05:29:35;206.68;;;86.93;;
46158;SDS011;31888;44.512;26.104;2022-12-24T05:31:59;192.45;;;79.20;;
46158;SDS011;31888;44.512;26.104;2022-12-24T05:34:24;216.45;;;87.30;;
46158;SDS011;31888;44.512;26.104;2022-12-24T05:36:48;207.10;;;88.15;;
46158;SDS011;31888;44.512;26.104;2022-12-24T05:39:13;181.35;;;80.95;;
46158;SDS011;31888;44.512;26.104;2022-12-24T05:41:38;186.27;;;80.43;;
46158;SDS011;31888;44.512;26.104;2022-12-24T05:44:03;195.38;;;84.05;;
46158;SDS011;31888;44.512;26.104;2022-12-24T05:46:29;198.43;;;83.28;;
46158;SDS011;31888;44.512;26.104;2022-12-24T05:48:53;199.52;;;81.85;;
46158;SDS011;31888;44.512;26.104;2022-12-24T05:51:18;189.85;;;81.40;;
46158;SDS011;31888;44.512;26.104;2022-12-24T05:53:44;200.43;;;83.93;;
46158;SDS011;31888;44.512;26.104;2022-12-24T05:56:10;188.30;;;83.93;;
46158;SDS011;31888;44.512;26.104;2022-12-24T05:58:37;184.02;;;79.38;;
46158;SDS011;31888;44.512;26.104;2022-12-24T06:01:02;186.05;;;80.38;;
46158;SDS011;31888;44.512;26.104;2022-12-24T06:03:29;185.70;;;79.53;;
46158;SDS011;31888;44.512;26.104;2022-12-24T06:05:58;187.10;;;79.75;;
46158;SDS011;31888;44.512;26.104;2022-12-24T06:08:23;168.87;;;75.23;;
46158;SDS011;31888;44.512;26.104;2022-12-24T06:10:52;179.18;;;75.93;;
46158;SDS011;31888;44.512;26.104;2022-12-24T06:13:18;183.73;;;78.25;;
46158;SDS011;31888;44.512;26.104;2022-12-24T06:15:42;175.93;;;77.80;;
46158;SDS011;31888;44.512;26.104;2022-12-24T06:18:07;178.70;;;76.95;;
46158;SDS011;31888;44.512;26.104;2022-12-24T06:20:33;184.45;;;78.18;;
46158;SDS011;31888;44.512;26.104;2022-12-24T06:22:57;177.98;;;77.10;;
46158;SDS011;31888;44.512;26.104;2022-12-24T06:25:22;174.00;;;76.40;;
46158;SDS011;31888;44.512;26.104;2022-12-24T06:27:46;181.73;;;79.63;;
46158;SDS011;31888;44.512;26.104;2022-12-24T06:30:10;176.73;;;77.72;;
46158;SDS011;31888;44.512;26.104;2022-12-24T06:32:35;170.90;;;77.25;;
46158;SDS011;31888;44.512;26.104;2022-12-24T06:35:00;174.52;;;78.10;;
46158;SDS011;31888;44.512;26.104;2022-12-24T06:37:26;172.90;;;76.88;;
46158;SDS011;31888;44.512;26.104;2022-12-24T06:39:50;169.65;;;77.18;;
46158;SDS011;31888;44.512;26.104;2022-12-24T06:42:14;164.82;;;77.30;;
46158;SDS011;31888;44.512;26.104;2022-12-24T06:44:39;167.20;;;75.28;;
46158;SDS011;31888;44.512;26.104;2022-12-24T06:47:03;169.43;;;77.38;;
46158;SDS011;31888;44.512;26.104;2022-12-24T06:49:28;158.95;;;73.57;;
46158;SDS011;31888;44.512;26.104;2022-12-24T06:51:52;158.60;;;75.55;;
46158;SDS011;31888;44.512;26.104;2022-12-24T06:54:18;160.35;;;76.05;;
46158;SDS011;31888;44.512;26.104;2022-12-24T06:56:42;157.70;;;74.75;;
46158;SDS011;31888;44.512;26.104;2022-12-24T06:59:07;156.55;;;75.93;;
46158;SDS011;31888;44.512;26.104;2022-12-24T07:01:31;164.10;;;77.05;;
46158;SDS011;31888;44.512;26.104;2022-12-24T07:03:56;165.75;;;75.57;;
46158;SDS011;31888;44.512;26.104;2022-12-24T07:06:25;155.23;;;75.22;;
46158;SDS011;31888;44.512;26.104;2022-12-24T07:08:52;154.23;;;74.78;;
46158;SDS011;31888;44.512;26.104;2022-12-24T07:11:18;158.85;;;72.15;;
46158;SDS011;31888;44.512;26.104;2022-12-24T07:13:43;153.95;;;75.07;;
46158;SDS011;31888;44.512;26.104;2022-12-24T07:16:08;158.25;;;73.60;;
46158;SDS011;31888;44.512;26.104;2022-12-24T07:18:33;140.68;;;70.93;;
46158;SDS011;31888;44.512;26.104;2022-12-24T07:20:58;145.35;;;69.53;;
46158;SDS011;31888;44.512;26.104;2022-12-24T07:23:23;145.32;;;69.25;;
46158;SDS011;31888;44.512;26.104;2022-12-24T07:25:48;145.38;;;68.55;;
46158;SDS011;31888;44.512;26.104;2022-12-24T07:28:14;142.52;;;67.05;;
46158;SDS011;31888;44.512;26.104;2022-12-24T07:30:41;132.10;;;67.97;;
46158;SDS011;31888;44.512;26.104;2022-12-24T07:33:05;133.65;;;61.88;;
46158;SDS011;31888;44.512;26.104;2022-12-24T07:35:30;139.05;;;66.60;;
46158;SDS011;31888;44.512;26.104;2022-12-24T07:37:55;136.05;;;65.05;;
46158;SDS011;31888;44.512;26.104;2022-12-24T07:40:19;132.20;;;63.78;;
46158;SDS011;31888;44.512;26.104;2022-12-24T07:42:44;134.63;;;64.43;;
46158;SDS011;31888;44.512;26.104;2022-12-24T07:45:10;133.85;;;65.40;;
46158;SDS011;31888;44.512;26.104;2022-12-24T07:47:35;130.18;;;62.75;;
46158;SDS011;31888;44.512;26.104;2022-12-24T07:49:59;122.15;;;58.65;;
46158;SDS011;31888;44.512;26.104;2022-12-24T07:52:24;128.30;;;62.83;;
46158;SDS011;31888;44.512;26.104;2022-12-24T07:54:48;128.27;;;62.55;;
46158;SDS011;31888;44.512;26.104;2022-12-24T07:57:13;114.25;;;57.35;;
46158;SDS011;31888;44.512;26.104;2022-12-24T07:59:38;110.43;;;55.70;;
46158;SDS011;31888;44.512;26.104;2022-12-24T08:02:07;105.95;;;50.67;;
46158;SDS011;31888;44.512;26.104;2022-12-24T08:04:40;95.63;;;51.30;;
46158;SDS011;31888;44.512;26.104;2022-12-24T08:07:04;98.40;;;47.03;;
46158;SDS011;31888;44.512;26.104;2022-12-24T08:09:30;89.18;;;47.55;;
46158;SDS011;31888;44.512;26.104;2022-12-24T08:11:55;92.20;;;45.70;;
46158;SDS011;31888;44.512;26.104;2022-12-24T08:14:19;94.10;;;46.70;;
46158;SDS011;31888;44.512;26.104;2022-12-24T08:16:43;94.40;;;46.28;;
46158;SDS011;31888;44.512;26.104;2022-12-24T08:19:09;92.90;;;45.90;;
46158;SDS011;31888;44.512;26.104;2022-12-24T08:21:34;95.55;;;46.92;;
46158;SDS011;31888;44.512;26.104;2022-12-24T08:23:58;89.47;;;44.65;;
46158;SDS011;31888;44.512;26.104;2022-12-24T08:26:23;90.28;;;45.20;;
46158;SDS011;31888;44.512;26.104;2022-12-24T08:28:47;88.15;;;45.42;;
46158;SDS011;31888;44.512;26.104;2022-12-24T08:31:11;89.13;;;46.03;;
46158;SDS011;31888;44.512;26.104;2022-12-24T08:33:37;89.85;;;46.15;;
46158;SDS011;31888;44.512;26.104;2022-12-24T08:36:03;89.38;;;44.80;;
46158;SDS011;31888;44.512;26.104;2022-12-24T08:38:28;90.75;;;47.60;;
46158;SDS011;31888;44.512;26.104;2022-12-24T08:40:53;101.82;;;50.63;;
46158;SDS011;31888;44.512;26.104;2022-12-24T08:43:18;100.15;;;49.15;;
46158;SDS011;31888;44.512;26.104;2022-12-24T08:45:42;98.00;;;49.35;;
46158;SDS011;31888;44.512;26.104;2022-12-24T08:48:08;94.45;;;48.72;;
46158;SDS011;31888;44.512;26.104;2022-12-24T08:50:33;91.43;;;48.75;;
46158;SDS011;31888;44.512;26.104;2022-12-24T08:53:00;89.70;;;47.75;;
46158;SDS011;31888;44.512;26.104;2022-12-24T08:55:24;85.57;;;45.35;;
46158;SDS011;31888;44.512;26.104;2022-12-24T08:57:49;87.07;;;45.85;;
46158;SDS011;31888;44.512;26.104;2022-12-24T09:00:13;89.07;;;45.78;;
46158;SDS011;31888;44.512;26.104;2022-12-24T09:02:38;82.43;;;44.70;;
46158;SDS011;31888;44.512;26.104;2022-12-24T09:05:03;81.97;;;43.03;;
46158;SDS011;31888;44.512;26.104;2022-12-24T09:07:28;80.70;;;43.50;;
46158;SDS011;31888;44.512;26.104;2022-12-24T09:09:54;83.05;;;43.60;;
46158;SDS011;31888;44.512;26.104;2022-12-24T09:12:18;83.38;;;44.45;;
46158;SDS011;31888;44.512;26.104;2022-12-24T09:14:43;83.22;;;43.65;;
46158;SDS011;31888;44.512;26.104;2022-12-24T09:17:07;82.72;;;45.63;;
46158;SDS011;31888;44.512;26.104;2022-12-24T09:19:32;90.07;;;45.75;;
46158;SDS011;31888;44.512;26.104;2022-12-24T09:21:56;87.30;;;46.38;;
46158;SDS011;31888;44.512;26.104;2022-12-24T09:24:20;89.45;;;47.13;;
46158;SDS011;31888;44.512;26.104;2022-12-24T09:26:47;90.63;;;47.20;;
46158;SDS011;31888;44.512;26.104;2022-12-24T09:29:19;94.65;;;50.25;;
46158;SDS011;31888;44.512;26.104;2022-12-24T09:31:43;87.85;;;47.20;;
46158;SDS011;31888;44.512;26.104;2022-12-24T09:34:08;88.07;;;45.97;;
46158;SDS011;31888;44.512;26.104;2022-12-24T09:36:33;100.03;;;48.22;;
46158;SDS011;31888;44.512;26.104;2022-12-24T09:38:57;89.07;;;46.60;;
46158;SDS011;31888;44.512;26.104;2022-12-24T09:41:25;92.88;;;48.58;;
46158;SDS011;31888;44.512;26.104;2022-12-24T09:44:16;102.83;;;50.67;;
46158;SDS011;31888;44.512;26.104;2022-12-24T09:46:50;93.47;;;49.13;;
46158;SDS011;31888;44.512;26.104;2022-12-24T09:49:17;86.97;;;48.33;;
46158;SDS011;31888;44.512;26.104;2022-12-24T09:51:46;101.40;;;49.03;;
46158;SDS011;31888;44.512;26.104;2022-12-24T09:54:14;94.93;;;48.92;;
46158;SDS011;31888;44.512;26.104;2022-12-24T09:56:43;102.57;;;48.08;;
46158;SDS011;31888;44.512;26.104;2022-12-24T09:59:10;92.45;;;48.00;;
46158;SDS011;31888;44.512;26.104;2022-12-24T10:01:37;95.65;;;49.95;;
46158;SDS011;31888;44.512;26.104;2022-12-24T10:04:03;101.15;;;50.78;;
46158;SDS011;31888;44.512;26.104;2022-12-24T10:06:34;108.68;;;51.45;;
46158;SDS011;31888;44.512;26.104;2022-12-24T10:09:06;102.30;;;50.60;;
46158;SDS011;31888;44.512;26.104;2022-12-24T10:11:39;105.95;;;52.00;;
46158;SDS011;31888;44.512;26.104;2022-12-24T10:14:13;109.18;;;54.38;;
46158;SDS011;31888;44.512;26.104;2022-12-24T10:16:47;106.80;;;53.65;;
46158;SDS011;31888;44.512;26.104;2022-12-24T10:19:22;111.40;;;53.80;;
46158;SDS011;31888;44.512;26.104;2022-12-24T10:21:58;111.32;;;55.45;;
46158;SDS011;31888;44.512;26.104;2022-12-24T10:24:29;104.28;;;54.05;;
46158;SDS011;31888;44.512;26.104;2022-12-24T10:29:26;110.80;;;54.58;;
46158;SDS011;31888;44.512;26.104;2022-12-24T10:31:54;112.55;;;53.58;;
46158;SDS011;31888;44.512;26.104;2022-12-24T10:34:23;111.35;;;52.47;;
46158;SDS011;31888;44.512;26.104;2022-12-24T10:36:54;106.38;;;52.55;;
46158;SDS011;31888;44.512;26.104;2022-12-24T10:39:20;108.68;;;51.30;;
46158;SDS011;31888;44.512;26.104;2022-12-24T10:41:46;108.47;;;52.75;;
46158;SDS011;31888;44.512;26.104;2022-12-24T10:44:14;105.47;;;54.25;;
46158;SDS011;31888;44.512;26.104;2022-12-24T10:46:41;106.78;;;53.45;;
46158;SDS011;31888;44.512;26.104;2022-12-24T10:49:11;111.20;;;54.85;;
46158;SDS011;31888;44.512;26.104;2022-12-24T10:51:39;113.60;;;54.63;;
46158;SDS011;31888;44.512;26.104;2022-12-24T10:54:10;107.78;;;54.00;;
46158;SDS011;31888;44.512;26.104;2022-12-24T10:56:45;103.50;;;52.65;;
46158;SDS011;31888;44.512;26.104;2022-12-24T10:59:23;110.03;;;54.67;;
46158;SDS011;31888;44.512;26.104;2022-12-24T11:01:51;107.78;;;55.38;;
46158;SDS011;31888;44.512;26.104;2022-12-24T11:04:17;113.15;;;54.65;;
46158;SDS011;31888;44.512;26.104;2022-12-24T11:06:50;116.90;;;57.92;;
46158;SDS011;31888;44.512;26.104;2022-12-24T11:09:19;104.35;;;54.75;;
46158;SDS011;31888;44.512;26.104;2022-12-24T11:11:45;111.95;;;56.08;;
46158;SDS011;31888;44.512;26.104;2022-12-24T11:14:10;112.43;;;55.08;;
46158;SDS011;31888;44.512;26.104;2022-12-24T11:16:38;122.10;;;56.92;;
46158;SDS011;31888;44.512;26.104;2022-12-24T11:19:05;118.50;;;58.60;;
46158;SDS011;31888;44.512;26.104;2022-12-24T11:21:39;123.03;;;55.83;;
46158;SDS011;31888;44.512;26.104;2022-12-24T11:24:04;112.65;;;56.00;;
46158;SDS011;31888;44.512;26.104;2022-12-24T11:26:36;116.35;;;58.88;;
46158;SDS011;31888;44.512;26.104;2022-12-24T11:29:08;117.18;;;57.63;;
46158;SDS011;31888;44.512;26.104;2022-12-24T11:31:39;130.48;;;62.92;;
46158;SDS011;31888;44.512;26.104;2022-12-24T11:34:17;122.22;;;61.42;;
46158;SDS011;31888;44.512;26.104;2022-12-24T11:36:50;122.05;;;59.38;;
46158;SDS011;31888;44.512;26.104;2022-12-24T11:39:17;128.95;;;62.50;;
46158;SDS011;31888;44.512;26.104;2022-12-24T11:41:43;127.90;;;63.80;;
46158;SDS011;31888;44.512;26.104;2022-12-24T11:44:12;135.15;;;64.60;;
46158;SDS011;31888;44.512;26.104;2022-12-24T11:46:38;131.50;;;65.13;;
46158;SDS011;31888;44.512;26.104;2022-12-24T11:49:14;123.65;;;62.20;;
46158;SDS011;31888;44.512;26.104;2022-12-24T11:54:49;122.13;;;62.90;;
46158;SDS011;31888;44.512;26.104;2022-12-24T11:57:40;127.50;;;60.83;;
46158;SDS011;31888;44.512;26.104;2022-12-24T12:00:15;127.38;;;61.63;;
46158;SDS011;31888;44.512;26.104;2022-12-24T12:02:40;118.72;;;60.38;;
46158;SDS011;31888;44.512;26.104;2022-12-24T12:05:15;126.63;;;61.70;;
46158;SDS011;31888;44.512;26.104;2022-12-24T12:07:43;127.82;;;62.13;;
46158;SDS011;31888;44.512;26.104;2022-12-24T12:10:19;122.30;;;59.65;;
46158;SDS011;31888;44.512;26.104;2022-12-24T12:12:54;117.82;;;59.78;;
46158;SDS011;31888;44.512;26.104;2022-12-24T12:15:24;119.43;;;58.83;;
46158;SDS011;31888;44.512;26.104;2022-12-24T12:17:53;120.35;;;58.17;;
46158;SDS011;31888;44.512;26.104;2022-12-24T12:20:21;116.68;;;57.70;;
46158;SDS011;31888;44.512;26.104;2022-12-24T12:22:49;115.88;;;57.40;;
46158;SDS011;31888;44.512;26.104;2022-12-24T12:25:20;115.47;;;56.78;;
46158;SDS011;31888;44.512;26.104;2022-12-24T12:27:50;107.72;;;53.97;;
46158;SDS011;31888;44.512;26.104;2022-12-24T12:30:17;119.95;;;57.35;;
46158;SDS011;31888;44.512;26.104;2022-12-24T12:32:44;115.97;;;58.33;;
46158;SDS011;31888;44.512;26.104;2022-12-24T12:35:15;120.40;;;59.88;;
46158;SDS011;31888;44.512;26.104;2022-12-24T12:37:49;118.90;;;59.22;;
46158;SDS011;31888;44.512;26.104;2022-12-24T12:40:20;114.43;;;60.25;;
46158;SDS011;31888;44.512;26.104;2022-12-24T12:42:50;128.05;;;60.05;;
46158;SDS011;31888;44.512;26.104;2022-12-24T12:45:29;121.18;;;58.88;;
46158;SDS011;31888;44.512;26.104;2022-12-24T12:48:04;124.05;;;60.17;;
46158;SDS011;31888;44.512;26.104;2022-12-24T12:50:52;115.88;;;56.97;;
46158;SDS011;31888;44.512;26.104;2022-12-24T12:53:23;122.47;;;61.70;;
46158;SDS011;31888;44.512;26.104;2022-12-24T12:55:55;121.03;;;61.88;;
46158;SDS011;31888;44.512;26.104;2022-12-24T12:58:29;130.40;;;62.10;;
46158;SDS011;31888;44.512;26.104;2022-12-24T13:00:58;132.90;;;61.60;;
46158;SDS011;31888;44.512;26.104;2022-12-24T13:03:39;125.25;;;61.05;;
46158;SDS011;31888;44.512;26.104;2022-12-24T13:09:28;127.63;;;62.05;;
46158;SDS011;31888;44.512;26.104;2022-12-24T13:12:12;130.50;;;62.05;;
46158;SDS011;31888;44.512;26.104;2022-12-24T13:14:56;126.28;;;61.42;;
46158;SDS011;31888;44.512;26.104;2022-12-24T13:17:46;120.68;;;60.63;;
46158;SDS011;31888;44.512;26.104;2022-12-24T13:20:24;127.68;;;62.72;;
46158;SDS011;31888;44.512;26.104;2022-12-24T13:22:55;120.88;;;59.75;;
46158;SDS011;31888;44.512;26.104;2022-12-24T13:25:23;124.63;;;61.30;;
46158;SDS011;31888;44.512;26.104;2022-12-24T13:27:52;125.85;;;60.95;;
46158;SDS011;31888;44.512;26.104;2022-12-24T13:30:37;135.35;;;64.63;;
46158;SDS011;31888;44.512;26.104;2022-12-24T13:33:02;129.15;;;63.47;;
46158;SDS011;31888;44.512;26.104;2022-12-24T13:35:29;121.72;;;60.85;;
46158;SDS011;31888;44.512;26.104;2022-12-24T13:46:57;136.98;;;64.30;;
46158;SDS011;31888;44.512;26.104;2022-12-24T13:49:28;133.40;;;64.22;;
46158;SDS011;31888;44.512;26.104;2022-12-24T13:52:05;129.25;;;63.17;;
46158;SDS011;31888;44.512;26.104;2022-12-24T13:54:39;140.30;;;64.10;;
46158;SDS011;31888;44.512;26.104;2022-12-24T13:57:21;134.27;;;64.90;;
46158;SDS011;31888;44.512;26.104;2022-12-24T13:59:52;132.15;;;65.22;;
46158;SDS011;31888;44.512;26.104;2022-12-24T14:02:22;135.80;;;66.30;;
46158;SDS011;31888;44.512;26.104;2022-12-24T14:04:47;142.70;;;65.88;;
46158;SDS011;31888;44.512;26.104;2022-12-24T14:07:13;140.73;;;65.78;;
46158;SDS011;31888;44.512;26.104;2022-12-24T14:09:46;135.90;;;67.07;;
46158;SDS011;31888;44.512;26.104;2022-12-24T14:12:15;135.10;;;63.65;;
46158;SDS011;31888;44.512;26.104;2022-12-24T14:18:10;131.77;;;65.78;;
46158;SDS011;31888;44.512;26.104;2022-12-24T14:20:39;123.55;;;63.60;;
46158;SDS011;31888;44.512;26.104;2022-12-24T14:23:04;142.93;;;64.90;;
46158;SDS011;31888;44.512;26.104;2022-12-24T14:25:39;134.20;;;64.78;;
46158;SDS011;31888;44.512;26.104;2022-12-24T14:28:05;137.60;;;66.95;;
46158;SDS011;31888;44.512;26.104;2022-12-24T14:30:38;135.40;;;65.93;;
46158;SDS011;31888;44.512;26.104;2022-12-24T14:33:03;133.73;;;66.50;;
46158;SDS011;31888;44.512;26.104;2022-12-24T14:35:29;133.27;;;66.72;;